sensor_id;sensor_type;location;lat;lon;timestamp;P1;durP1;ratioP1;P2;durP2;ratioP2
22160;SDS011;49035;48.812;11.762;2022-09-09T00:01:54;12.40;;;4.35;;
22160;SDS011;49035;48.812;11.762;2022-09-09T00:04:31;8.75;;;2.95;;
22160;SDS011;49035;48.812;11.762;2022-09-09T00:09:28;4.15;;;3.80;;
22160;SDS011;49035;48.812;11.762;2022-09-09T00:12:02;4.90;;;4.40;;
22160;SDS011;49035;48.812;11.762;2022-09-09T00:17:34;4.03;;;3.47;;
22160;SDS011;49035;48.812;11.762;2022-09-09T00:26:09;5.60;;;2.80;;
22160;SDS011;49035;48.812;11.762;2022-09-09T00:28:46;3.10;;;2.90;;
22160;SDS011;49035;48.812;11.762;2022-09-09T00:31:16;3.70;;;2.10;;
22160;SDS011;49035;48.812;11.762;2022-09-09T00:33:47;2.77;;;2.57;;
22160;SDS011;49035;48.812;11.762;2022-09-09T00:36:15;5.27;;;3.37;;
22160;SDS011;49035;48.812;11.762;2022-09-09T00:38:51;68.07;;;5.63;;
22160;SDS011;49035;48.812;11.762;2022-09-09T00:46:53;10.40;;;4.27;;
22160;SDS011;49035;48.812;11.762;2022-09-09T00:58:13;9.73;;;6.30;;
22160;SDS011;49035;48.812;11.762;2022-09-09T01:08:58;6.37;;;4.63;;
22160;SDS011;49035;48.812;11.762;2022-09-09T01:16:56;6.17;;;4.67;;
22160;SDS011;49035;48.812;11.762;2022-09-09T01:20:13;4.27;;;3.87;;
22160;SDS011;49035;48.812;11.762;2022-09-09T01:22:30;6.67;;;4.57;;
22160;SDS011;49035;48.812;11.762;2022-09-09T01:28:08;6.40;;;3.63;;
22160;SDS011;49035;48.812;11.762;2022-09-09T01:30:46;4.33;;;3.93;;
22160;SDS011;49035;48.812;11.762;2022-09-09T01:33:13;10.27;;;4.10;;
22160;SDS011;49035;48.812;11.762;2022-09-09T01:35:44;3.30;;;3.00;;
22160;SDS011;49035;48.812;11.762;2022-09-09T01:38:19;5.97;;;4.47;;
22160;SDS011;49035;48.812;11.762;2022-09-09T01:40:46;56.30;;;6.80;;
22160;SDS011;49035;48.812;11.762;2022-09-09T01:43:12;5.03;;;4.53;;
22160;SDS011;49035;48.812;11.762;2022-09-09T01:45:39;7.73;;;4.40;;
22160;SDS011;49035;48.812;11.762;2022-09-09T01:48:06;6.68;;;4.75;;
22160;SDS011;49035;48.812;11.762;2022-09-09T01:50:31;5.07;;;4.67;;
22160;SDS011;49035;48.812;11.762;2022-09-09T01:52:58;4.67;;;4.27;;
22160;SDS011;49035;48.812;11.762;2022-09-09T01:55:30;9.67;;;4.67;;
22160;SDS011;49035;48.812;11.762;2022-09-09T01:58:11;7.40;;;4.00;;
22160;SDS011;49035;48.812;11.762;2022-09-09T02:00:42;4.87;;;4.30;;
22160;SDS011;49035;48.812;11.762;2022-09-09T02:03:25;6.97;;;3.93;;
22160;SDS011;49035;48.812;11.762;2022-09-09T02:08:41;5.23;;;4.30;;
22160;SDS011;49035;48.812;11.762;2022-09-09T02:11:12;4.03;;;3.50;;
22160;SDS011;49035;48.812;11.762;2022-09-09T02:13:39;3.47;;;3.17;;
22160;SDS011;49035;48.812;11.762;2022-09-09T02:16:08;4.07;;;3.67;;
22160;SDS011;49035;48.812;11.762;2022-09-09T02:18:38;11.23;;;4.50;;
22160;SDS011;49035;48.812;11.762;2022-09-09T02:21:05;16.70;;;4.77;;
22160;SDS011;49035;48.812;11.762;2022-09-09T02:23:32;6.72;;;4.13;;
22160;SDS011;49035;48.812;11.762;2022-09-09T02:25:59;6.13;;;3.88;;
22160;SDS011;49035;48.812;11.762;2022-09-09T02:28:28;4.00;;;3.60;;
22160;SDS011;49035;48.812;11.762;2022-09-09T02:30:56;7.25;;;3.92;;
22160;SDS011;49035;48.812;11.762;2022-09-09T02:33:25;8.73;;;4.00;;
22160;SDS011;49035;48.812;11.762;2022-09-09T02:35:53;8.17;;;4.07;;
22160;SDS011;49035;48.812;11.762;2022-09-09T02:38:26;6.90;;;3.70;;
22160;SDS011;49035;48.812;11.762;2022-09-09T02:40:56;7.32;;;4.03;;
22160;SDS011;49035;48.812;11.762;2022-09-09T02:43:23;3.90;;;3.60;;
22160;SDS011;49035;48.812;11.762;2022-09-09T02:48:33;5.03;;;3.60;;
22160;SDS011;49035;48.812;11.762;2022-09-09T02:51:08;6.45;;;3.85;;
22160;SDS011;49035;48.812;11.762;2022-09-09T02:56:29;8.73;;;3.23;;
22160;SDS011;49035;48.812;11.762;2022-09-09T02:58:59;5.20;;;2.93;;
22160;SDS011;49035;48.812;11.762;2022-09-09T03:01:27;4.43;;;2.50;;
22160;SDS011;49035;48.812;11.762;2022-09-09T03:03:53;6.53;;;3.20;;
22160;SDS011;49035;48.812;11.762;2022-09-09T03:06:20;4.07;;;2.90;;
22160;SDS011;49035;48.812;11.762;2022-09-09T03:08:45;2.87;;;2.67;;
22160;SDS011;49035;48.812;11.762;2022-09-09T03:11:11;2.87;;;2.67;;
22160;SDS011;49035;48.812;11.762;2022-09-09T03:13:36;2.37;;;2.17;;
22160;SDS011;49035;48.812;11.762;2022-09-09T03:16:03;2.77;;;2.57;;
22160;SDS011;49035;48.812;11.762;2022-09-09T03:18:29;9.47;;;3.47;;
22160;SDS011;49035;48.812;11.762;2022-09-09T03:20:55;5.80;;;3.67;;
22160;SDS011;49035;48.812;11.762;2022-09-09T03:23:20;9.73;;;4.20;;
22160;SDS011;49035;48.812;11.762;2022-09-09T03:25:47;18.80;;;3.00;;
22160;SDS011;49035;48.812;11.762;2022-09-09T03:28:14;3.30;;;2.70;;
22160;SDS011;49035;48.812;11.762;2022-09-09T03:30:40;3.33;;;3.00;;
22160;SDS011;49035;48.812;11.762;2022-09-09T03:33:05;47.73;;;5.20;;
22160;SDS011;49035;48.812;11.762;2022-09-09T03:35:31;9.10;;;2.80;;
22160;SDS011;49035;48.812;11.762;2022-09-09T03:37:57;3.27;;;2.97;;
22160;SDS011;49035;48.812;11.762;2022-09-09T03:40:22;2.10;;;2.00;;
22160;SDS011;49035;48.812;11.762;2022-09-09T03:42:48;4.13;;;2.77;;
22160;SDS011;49035;48.812;11.762;2022-09-09T03:45:14;4.20;;;3.70;;
22160;SDS011;49035;48.812;11.762;2022-09-09T03:47:40;4.93;;;3.80;;
22160;SDS011;49035;48.812;11.762;2022-09-09T03:50:06;4.37;;;3.97;;
22160;SDS011;49035;48.812;11.762;2022-09-09T03:52:37;5.80;;;4.17;;
22160;SDS011;49035;48.812;11.762;2022-09-09T03:55:06;6.88;;;5.95;;
22160;SDS011;49035;48.812;11.762;2022-09-09T03:57:32;8.57;;;5.53;;
22160;SDS011;49035;48.812;11.762;2022-09-09T04:00:00;10.43;;;6.50;;
22160;SDS011;49035;48.812;11.762;2022-09-09T04:02:30;9.00;;;6.27;;
22160;SDS011;49035;48.812;11.762;2022-09-09T04:04:56;7.60;;;6.47;;
22160;SDS011;49035;48.812;11.762;2022-09-09T04:07:21;8.53;;;5.77;;
22160;SDS011;49035;48.812;11.762;2022-09-09T04:09:47;6.83;;;5.40;;
22160;SDS011;49035;48.812;11.762;2022-09-09T04:12:13;7.55;;;5.88;;
22160;SDS011;49035;48.812;11.762;2022-09-09T04:14:38;7.30;;;5.40;;
22160;SDS011;49035;48.812;11.762;2022-09-09T04:17:04;9.77;;;7.07;;
22160;SDS011;49035;48.812;11.762;2022-09-09T04:19:31;7.70;;;5.73;;
22160;SDS011;49035;48.812;11.762;2022-09-09T04:21:57;6.85;;;5.57;;
22160;SDS011;49035;48.812;11.762;2022-09-09T04:24:22;6.75;;;5.80;;
22160;SDS011;49035;48.812;11.762;2022-09-09T04:26:49;9.73;;;5.73;;
22160;SDS011;49035;48.812;11.762;2022-09-09T04:29:15;7.07;;;5.77;;
22160;SDS011;49035;48.812;11.762;2022-09-09T04:31:41;6.40;;;5.75;;
22160;SDS011;49035;48.812;11.762;2022-09-09T04:34:07;9.93;;;6.30;;
22160;SDS011;49035;48.812;11.762;2022-09-09T04:36:34;11.63;;;6.23;;
22160;SDS011;49035;48.812;11.762;2022-09-09T04:38:59;11.18;;;5.97;;
22160;SDS011;49035;48.812;11.762;2022-09-09T04:41:26;10.48;;;6.93;;
22160;SDS011;49035;48.812;11.762;2022-09-09T04:43:52;9.53;;;6.57;;
22160;SDS011;49035;48.812;11.762;2022-09-09T04:46:18;8.07;;;6.17;;
22160;SDS011;49035;48.812;11.762;2022-09-09T04:48:45;8.60;;;7.22;;
22160;SDS011;49035;48.812;11.762;2022-09-09T04:51:11;8.98;;;6.20;;
22160;SDS011;49035;48.812;11.762;2022-09-09T04:53:38;8.40;;;6.80;;
22160;SDS011;49035;48.812;11.762;2022-09-09T04:56:12;8.20;;;6.45;;
22160;SDS011;49035;48.812;11.762;2022-09-09T04:58:39;10.63;;;7.47;;
22160;SDS011;49035;48.812;11.762;2022-09-09T05:01:10;14.57;;;6.97;;
22160;SDS011;49035;48.812;11.762;2022-09-09T05:03:38;9.10;;;7.00;;
22160;SDS011;49035;48.812;11.762;2022-09-09T05:06:07;9.05;;;6.82;;
22160;SDS011;49035;48.812;11.762;2022-09-09T05:08:37;10.20;;;6.97;;
22160;SDS011;49035;48.812;11.762;2022-09-09T05:11:04;9.65;;;7.07;;
22160;SDS011;49035;48.812;11.762;2022-09-09T05:13:48;8.98;;;7.18;;
22160;SDS011;49035;48.812;11.762;2022-09-09T05:16:15;11.68;;;7.35;;
22160;SDS011;49035;48.812;11.762;2022-09-09T05:18:41;9.55;;;7.25;;
22160;SDS011;49035;48.812;11.762;2022-09-09T05:21:08;9.55;;;6.72;;
22160;SDS011;49035;48.812;11.762;2022-09-09T05:23:34;12.18;;;7.38;;
22160;SDS011;49035;48.812;11.762;2022-09-09T05:26:00;12.25;;;7.22;;
22160;SDS011;49035;48.812;11.762;2022-09-09T05:28:26;11.57;;;8.10;;
22160;SDS011;49035;48.812;11.762;2022-09-09T05:30:59;12.95;;;7.43;;
22160;SDS011;49035;48.812;11.762;2022-09-09T05:33:30;13.43;;;9.30;;
22160;SDS011;49035;48.812;11.762;2022-09-09T05:36:00;12.25;;;9.85;;
22160;SDS011;49035;48.812;11.762;2022-09-09T05:38:28;12.43;;;9.05;;
22160;SDS011;49035;48.812;11.762;2022-09-09T05:40:55;12.68;;;8.25;;
22160;SDS011;49035;48.812;11.762;2022-09-09T05:43:23;13.10;;;8.15;;
22160;SDS011;49035;48.812;11.762;2022-09-09T05:46:03;11.82;;;9.02;;
22160;SDS011;49035;48.812;11.762;2022-09-09T05:48:40;9.88;;;7.57;;
22160;SDS011;49035;48.812;11.762;2022-09-09T05:51:11;10.82;;;7.15;;
22160;SDS011;49035;48.812;11.762;2022-09-09T05:53:40;8.80;;;7.05;;
22160;SDS011;49035;48.812;11.762;2022-09-09T05:56:07;7.72;;;6.70;;
22160;SDS011;49035;48.812;11.762;2022-09-09T05:58:39;10.45;;;6.78;;
22160;SDS011;49035;48.812;11.762;2022-09-09T06:03:33;9.43;;;6.60;;
22160;SDS011;49035;48.812;11.762;2022-09-09T06:06:00;13.00;;;7.13;;
22160;SDS011;49035;48.812;11.762;2022-09-09T06:08:30;10.65;;;7.03;;
22160;SDS011;49035;48.812;11.762;2022-09-09T06:11:00;13.63;;;10.05;;
22160;SDS011;49035;48.812;11.762;2022-09-09T06:13:28;16.30;;;11.95;;
22160;SDS011;49035;48.812;11.762;2022-09-09T06:15:53;21.35;;;14.13;;
22160;SDS011;49035;48.812;11.762;2022-09-09T06:18:19;18.63;;;13.15;;
22160;SDS011;49035;48.812;11.762;2022-09-09T06:20:55;20.05;;;13.68;;
22160;SDS011;49035;48.812;11.762;2022-09-09T06:23:21;16.77;;;10.35;;
22160;SDS011;49035;48.812;11.762;2022-09-09T06:25:47;15.18;;;10.68;;
22160;SDS011;49035;48.812;11.762;2022-09-09T06:28:14;8.07;;;6.90;;
22160;SDS011;49035;48.812;11.762;2022-09-09T06:30:40;9.48;;;6.55;;
22160;SDS011;49035;48.812;11.762;2022-09-09T06:33:06;5.90;;;5.28;;
22160;SDS011;49035;48.812;11.762;2022-09-09T06:35:32;9.60;;;5.05;;
22160;SDS011;49035;48.812;11.762;2022-09-09T06:37:57;7.32;;;4.32;;
22160;SDS011;49035;48.812;11.762;2022-09-09T06:40:23;6.63;;;4.80;;
22160;SDS011;49035;48.812;11.762;2022-09-09T06:42:49;5.00;;;4.32;;
22160;SDS011;49035;48.812;11.762;2022-09-09T06:45:15;5.93;;;4.78;;
22160;SDS011;49035;48.812;11.762;2022-09-09T06:47:41;9.95;;;5.20;;
22160;SDS011;49035;48.812;11.762;2022-09-09T06:50:07;8.82;;;5.22;;
22160;SDS011;49035;48.812;11.762;2022-09-09T06:52:35;7.63;;;5.65;;
22160;SDS011;49035;48.812;11.762;2022-09-09T06:55:00;6.60;;;5.93;;
22160;SDS011;49035;48.812;11.762;2022-09-09T06:57:26;6.30;;;5.68;;
22160;SDS011;49035;48.812;11.762;2022-09-09T06:59:51;8.68;;;5.10;;
22160;SDS011;49035;48.812;11.762;2022-09-09T07:02:17;7.18;;;6.00;;
22160;SDS011;49035;48.812;11.762;2022-09-09T07:04:43;6.38;;;5.63;;
22160;SDS011;49035;48.812;11.762;2022-09-09T07:07:09;8.02;;;5.90;;
22160;SDS011;49035;48.812;11.762;2022-09-09T07:09:37;10.77;;;6.55;;
22160;SDS011;49035;48.812;11.762;2022-09-09T07:12:02;9.40;;;6.80;;
22160;SDS011;49035;48.812;11.762;2022-09-09T07:14:30;8.88;;;6.13;;
22160;SDS011;49035;48.812;11.762;2022-09-09T07:16:56;9.75;;;7.28;;
22160;SDS011;49035;48.812;11.762;2022-09-09T07:19:22;11.57;;;7.70;;
22160;SDS011;49035;48.812;11.762;2022-09-09T07:21:48;9.00;;;8.05;;
22160;SDS011;49035;48.812;11.762;2022-09-09T07:24:14;9.30;;;7.30;;
22160;SDS011;49035;48.812;11.762;2022-09-09T07:26:40;9.13;;;8.23;;
22160;SDS011;49035;48.812;11.762;2022-09-09T07:29:06;9.75;;;8.75;;
22160;SDS011;49035;48.812;11.762;2022-09-09T07:31:34;12.80;;;9.05;;
22160;SDS011;49035;48.812;11.762;2022-09-09T07:34:01;10.93;;;8.60;;
22160;SDS011;49035;48.812;11.762;2022-09-09T07:36:32;10.55;;;9.45;;
22160;SDS011;49035;48.812;11.762;2022-09-09T07:39:01;11.88;;;9.27;;
22160;SDS011;49035;48.812;11.762;2022-09-09T07:41:33;11.20;;;9.30;;
22160;SDS011;49035;48.812;11.762;2022-09-09T07:44:07;14.57;;;10.32;;
22160;SDS011;49035;48.812;11.762;2022-09-09T07:46:38;16.85;;;10.85;;
22160;SDS011;49035;48.812;11.762;2022-09-09T07:49:04;12.05;;;9.45;;
22160;SDS011;49035;48.812;11.762;2022-09-09T07:51:31;11.75;;;9.77;;
22160;SDS011;49035;48.812;11.762;2022-09-09T07:53:59;14.07;;;10.65;;
22160;SDS011;49035;48.812;11.762;2022-09-09T07:56:30;11.77;;;10.20;;
22160;SDS011;49035;48.812;11.762;2022-09-09T07:58:56;14.50;;;11.18;;
22160;SDS011;49035;48.812;11.762;2022-09-09T08:01:25;12.68;;;11.38;;
22160;SDS011;49035;48.812;11.762;2022-09-09T08:03:55;14.70;;;11.32;;
22160;SDS011;49035;48.812;11.762;2022-09-09T08:06:24;13.93;;;11.52;;
22160;SDS011;49035;48.812;11.762;2022-09-09T08:08:51;17.05;;;9.90;;
22160;SDS011;49035;48.812;11.762;2022-09-09T08:11:18;11.05;;;9.35;;
22160;SDS011;49035;48.812;11.762;2022-09-09T08:13:44;11.07;;;7.95;;
22160;SDS011;49035;48.812;11.762;2022-09-09T08:16:12;11.32;;;9.35;;
22160;SDS011;49035;48.812;11.762;2022-09-09T08:18:40;13.35;;;10.63;;
22160;SDS011;49035;48.812;11.762;2022-09-09T08:21:07;12.95;;;9.02;;
22160;SDS011;49035;48.812;11.762;2022-09-09T08:23:40;15.25;;;9.90;;
22160;SDS011;49035;48.812;11.762;2022-09-09T08:26:09;12.73;;;9.32;;
22160;SDS011;49035;48.812;11.762;2022-09-09T08:28:36;14.18;;;8.65;;
22160;SDS011;49035;48.812;11.762;2022-09-09T08:31:10;10.52;;;8.77;;
22160;SDS011;49035;48.812;11.762;2022-09-09T08:33:47;11.75;;;7.32;;
22160;SDS011;49035;48.812;11.762;2022-09-09T08:36:14;11.93;;;6.78;;
22160;SDS011;49035;48.812;11.762;2022-09-09T08:38:48;11.52;;;6.80;;
22160;SDS011;49035;48.812;11.762;2022-09-09T08:49:18;7.63;;;3.38;;
22160;SDS011;49035;48.812;11.762;2022-09-09T08:52:08;6.15;;;2.97;;
22160;SDS011;49035;48.812;11.762;2022-09-09T08:54:40;3.47;;;2.70;;
22160;SDS011;49035;48.812;11.762;2022-09-09T08:57:07;7.13;;;3.17;;
22160;SDS011;49035;48.812;11.762;2022-09-09T08:59:39;5.25;;;3.15;;
22160;SDS011;49035;48.812;11.762;2022-09-09T09:09:57;3.30;;;2.20;;
22160;SDS011;49035;48.812;11.762;2022-09-09T09:12:25;4.50;;;2.45;;
22160;SDS011;49035;48.812;11.762;2022-09-09T09:14:55;4.82;;;1.83;;
22160;SDS011;49035;48.812;11.762;2022-09-09T09:17:24;2.00;;;1.70;;
22160;SDS011;49035;48.812;11.762;2022-09-09T09:19:52;2.60;;;1.60;;
22160;SDS011;49035;48.812;11.762;2022-09-09T09:22:22;6.38;;;1.63;;
22160;SDS011;49035;48.812;11.762;2022-09-09T09:24:55;2.90;;;1.67;;
22160;SDS011;49035;48.812;11.762;2022-09-09T09:29:50;2.33;;;1.30;;
22160;SDS011;49035;48.812;11.762;2022-09-09T09:32:19;3.85;;;1.27;;
22160;SDS011;49035;48.812;11.762;2022-09-09T09:34:51;2.78;;;1.13;;
22160;SDS011;49035;48.812;11.762;2022-09-09T09:37:30;1.73;;;1.38;;
22160;SDS011;49035;48.812;11.762;2022-09-09T09:42:51;4.20;;;1.85;;
22160;SDS011;49035;48.812;11.762;2022-09-09T09:45:27;3.42;;;1.65;;
22160;SDS011;49035;48.812;11.762;2022-09-09T09:48:00;2.08;;;1.10;;
22160;SDS011;49035;48.812;11.762;2022-09-09T09:50:28;1.48;;;1.38;;
22160;SDS011;49035;48.812;11.762;2022-09-09T09:53:00;2.90;;;1.02;;
22160;SDS011;49035;48.812;11.762;2022-09-09T09:55:30;2.70;;;1.33;;
22160;SDS011;49035;48.812;11.762;2022-09-09T09:58:05;1.48;;;1.10;;
22160;SDS011;49035;48.812;11.762;2022-09-09T10:00:31;2.90;;;1.30;;
22160;SDS011;49035;48.812;11.762;2022-09-09T10:03:00;2.08;;;1.00;;
22160;SDS011;49035;48.812;11.762;2022-09-09T10:05:29;3.15;;;1.45;;
22160;SDS011;49035;48.812;11.762;2022-09-09T10:13:38;2.40;;;1.10;;
22160;SDS011;49035;48.812;11.762;2022-09-09T10:19:22;2.20;;;0.90;;
22160;SDS011;49035;48.812;11.762;2022-09-09T10:22:18;3.40;;;1.15;;
22160;SDS011;49035;48.812;11.762;2022-09-09T10:25:08;1.30;;;0.90;;
22160;SDS011;49035;48.812;11.762;2022-09-09T10:27:44;2.65;;;0.90;;
22160;SDS011;49035;48.812;11.762;2022-09-09T10:36:16;1.92;;;0.82;;
22160;SDS011;49035;48.812;11.762;2022-09-09T10:38:48;2.38;;;1.02;;
22160;SDS011;49035;48.812;11.762;2022-09-09T10:44:38;2.63;;;1.10;;
22160;SDS011;49035;48.812;11.762;2022-09-09T10:50:18;1.92;;;1.05;;
22160;SDS011;49035;48.812;11.762;2022-09-09T10:53:01;2.63;;;1.15;;
22160;SDS011;49035;48.812;11.762;2022-09-09T10:55:41;1.98;;;0.95;;
22160;SDS011;49035;48.812;11.762;2022-09-09T10:58:53;2.30;;;0.90;;
22160;SDS011;49035;48.812;11.762;2022-09-09T11:01:22;1.48;;;1.00;;
22160;SDS011;49035;48.812;11.762;2022-09-09T11:03:56;2.35;;;1.25;;
22160;SDS011;49035;48.812;11.762;2022-09-09T11:06:32;2.42;;;0.63;;
22160;SDS011;49035;48.812;11.762;2022-09-09T11:09:02;2.00;;;0.90;;
22160;SDS011;49035;48.812;11.762;2022-09-09T11:11:37;1.05;;;0.60;;
22160;SDS011;49035;48.812;11.762;2022-09-09T11:17:14;0.40;;;0.40;;
22160;SDS011;49035;48.812;11.762;2022-09-09T11:19:43;2.35;;;0.70;;
22160;SDS011;49035;48.812;11.762;2022-09-09T11:25:01;0.50;;;0.50;;
22160;SDS011;49035;48.812;11.762;2022-09-09T11:30:32;1.58;;;0.52;;
22160;SDS011;49035;48.812;11.762;2022-09-09T11:41:12;1.60;;;0.70;;
22160;SDS011;49035;48.812;11.762;2022-09-09T11:43:40;0.82;;;0.50;;
22160;SDS011;49035;48.812;11.762;2022-09-09T11:46:08;0.68;;;0.65;;
22160;SDS011;49035;48.812;11.762;2022-09-09T11:51:07;1.95;;;0.60;;
22160;SDS011;49035;48.812;11.762;2022-09-09T11:53:53;0.98;;;0.60;;
22160;SDS011;49035;48.812;11.762;2022-09-09T11:56:43;1.15;;;0.70;;
22160;SDS011;49035;48.812;11.762;2022-09-09T11:59:22;2.72;;;0.50;;
22160;SDS011;49035;48.812;11.762;2022-09-09T12:01:54;1.98;;;0.80;;
22160;SDS011;49035;48.812;11.762;2022-09-09T12:07:01;1.60;;;0.90;;
22160;SDS011;49035;48.812;11.762;2022-09-09T12:09:43;1.80;;;0.70;;
22160;SDS011;49035;48.812;11.762;2022-09-09T12:12:30;1.58;;;0.98;;
22160;SDS011;49035;48.812;11.762;2022-09-09T12:17:41;1.35;;;1.00;;
22160;SDS011;49035;48.812;11.762;2022-09-09T12:28:16;3.22;;;1.00;;
22160;SDS011;49035;48.812;11.762;2022-09-09T12:33:43;0.60;;;0.60;;
22160;SDS011;49035;48.812;11.762;2022-09-09T12:36:19;1.63;;;0.90;;
22160;SDS011;49035;48.812;11.762;2022-09-09T12:38:54;1.83;;;0.93;;
22160;SDS011;49035;48.812;11.762;2022-09-09T12:41:34;2.35;;;1.00;;
22160;SDS011;49035;48.812;11.762;2022-09-09T12:44:06;2.60;;;1.05;;
22160;SDS011;49035;48.812;11.762;2022-09-09T12:46:39;4.85;;;1.15;;
22160;SDS011;49035;48.812;11.762;2022-09-09T12:52:41;2.47;;;1.10;;
22160;SDS011;49035;48.812;11.762;2022-09-09T12:54:52;2.50;;;1.17;;
22160;SDS011;49035;48.812;11.762;2022-09-09T12:57:18;1.20;;;0.95;;
22160;SDS011;49035;48.812;11.762;2022-09-09T12:59:46;1.33;;;0.80;;
22160;SDS011;49035;48.812;11.762;2022-09-09T13:04:48;4.22;;;1.15;;
22160;SDS011;49035;48.812;11.762;2022-09-09T13:07:15;1.60;;;0.90;;
22160;SDS011;49035;48.812;11.762;2022-09-09T13:09:41;3.35;;;1.10;;
22160;SDS011;49035;48.812;11.762;2022-09-09T13:12:11;5.60;;;1.20;;
22160;SDS011;49035;48.812;11.762;2022-09-09T13:14:42;2.55;;;1.20;;
22160;SDS011;49035;48.812;11.762;2022-09-09T13:17:19;3.00;;;1.30;;
22160;SDS011;49035;48.812;11.762;2022-09-09T13:19:46;5.22;;;1.40;;
22160;SDS011;49035;48.812;11.762;2022-09-09T13:25:00;3.53;;;1.50;;
22160;SDS011;49035;48.812;11.762;2022-09-09T13:27:33;3.67;;;1.23;;
22160;SDS011;49035;48.812;11.762;2022-09-09T13:30:19;2.35;;;1.20;;
22160;SDS011;49035;48.812;11.762;2022-09-09T13:33:50;3.65;;;1.38;;
22160;SDS011;49035;48.812;11.762;2022-09-09T13:35:48;2.30;;;1.00;;
22160;SDS011;49035;48.812;11.762;2022-09-09T13:38:20;2.53;;;1.10;;
22160;SDS011;49035;48.812;11.762;2022-09-09T13:43:46;2.83;;;1.10;;
22160;SDS011;49035;48.812;11.762;2022-09-09T13:48:54;1.77;;;1.33;;
22160;SDS011;49035;48.812;11.762;2022-09-09T13:51:25;2.25;;;1.08;;
22160;SDS011;49035;48.812;11.762;2022-09-09T13:53:57;4.63;;;1.40;;
22160;SDS011;49035;48.812;11.762;2022-09-09T13:56:24;2.72;;;1.30;;
22160;SDS011;49035;48.812;11.762;2022-09-09T13:58:49;4.07;;;1.25;;
22160;SDS011;49035;48.812;11.762;2022-09-09T14:01:15;2.90;;;1.33;;
22160;SDS011;49035;48.812;11.762;2022-09-09T14:03:40;2.03;;;1.15;;
22160;SDS011;49035;48.812;11.762;2022-09-09T14:06:06;3.30;;;1.08;;
22160;SDS011;49035;48.812;11.762;2022-09-09T14:08:32;1.73;;;1.20;;
22160;SDS011;49035;48.812;11.762;2022-09-09T14:11:02;3.45;;;1.17;;
22160;SDS011;49035;48.812;11.762;2022-09-09T14:13:28;3.75;;;1.00;;
22160;SDS011;49035;48.812;11.762;2022-09-09T14:15:54;1.40;;;0.80;;
22160;SDS011;49035;48.812;11.762;2022-09-09T14:18:19;2.22;;;1.00;;
22160;SDS011;49035;48.812;11.762;2022-09-09T14:20:47;3.15;;;0.70;;
22160;SDS011;49035;48.812;11.762;2022-09-09T14:23:13;2.67;;;0.90;;
22160;SDS011;49035;48.812;11.762;2022-09-09T14:25:40;3.95;;;1.15;;
22160;SDS011;49035;48.812;11.762;2022-09-09T14:28:07;2.13;;;1.00;;
22160;SDS011;49035;48.812;11.762;2022-09-09T14:30:37;5.03;;;1.02;;
22160;SDS011;49035;48.812;11.762;2022-09-09T14:33:04;2.40;;;1.55;;
22160;SDS011;49035;48.812;11.762;2022-09-09T14:35:30;1.88;;;1.00;;
22160;SDS011;49035;48.812;11.762;2022-09-09T14:37:58;2.38;;;1.05;;
22160;SDS011;49035;48.812;11.762;2022-09-09T14:40:25;3.60;;;1.15;;
22160;SDS011;49035;48.812;11.762;2022-09-09T14:42:52;3.35;;;0.93;;
22160;SDS011;49035;48.812;11.762;2022-09-09T14:45:18;1.58;;;1.00;;
22160;SDS011;49035;48.812;11.762;2022-09-09T14:47:44;2.33;;;1.17;;
22160;SDS011;49035;48.812;11.762;2022-09-09T14:50:10;1.30;;;1.00;;
22160;SDS011;49035;48.812;11.762;2022-09-09T14:52:37;3.10;;;1.05;;
22160;SDS011;49035;48.812;11.762;2022-09-09T14:55:03;3.30;;;1.13;;
22160;SDS011;49035;48.812;11.762;2022-09-09T14:57:29;2.72;;;1.27;;
22160;SDS011;49035;48.812;11.762;2022-09-09T14:59:55;1.45;;;1.33;;
22160;SDS011;49035;48.812;11.762;2022-09-09T15:02:21;2.72;;;1.33;;
22160;SDS011;49035;48.812;11.762;2022-09-09T15:04:47;4.30;;;1.95;;
22160;SDS011;49035;48.812;11.762;2022-09-09T15:07:14;5.40;;;2.20;;
22160;SDS011;49035;48.812;11.762;2022-09-09T15:09:41;2.17;;;1.70;;
22160;SDS011;49035;48.812;11.762;2022-09-09T15:12:07;2.72;;;1.60;;
22160;SDS011;49035;48.812;11.762;2022-09-09T15:14:32;2.05;;;1.50;;
22160;SDS011;49035;48.812;11.762;2022-09-09T15:17:00;5.07;;;1.50;;
22160;SDS011;49035;48.812;11.762;2022-09-09T15:19:26;2.00;;;1.27;;
22160;SDS011;49035;48.812;11.762;2022-09-09T15:21:51;1.77;;;1.40;;
22160;SDS011;49035;48.812;11.762;2022-09-09T15:24:17;2.60;;;1.05;;
22160;SDS011;49035;48.812;11.762;2022-09-09T15:26:43;2.47;;;0.85;;
22160;SDS011;49035;48.812;11.762;2022-09-09T15:29:08;3.33;;;1.15;;
22160;SDS011;49035;48.812;11.762;2022-09-09T15:31:34;3.15;;;1.10;;
22160;SDS011;49035;48.812;11.762;2022-09-09T15:34:01;1.25;;;0.90;;
22160;SDS011;49035;48.812;11.762;2022-09-09T15:36:29;1.63;;;0.80;;
22160;SDS011;49035;48.812;11.762;2022-09-09T15:38:59;0.93;;;0.80;;
22160;SDS011;49035;48.812;11.762;2022-09-09T15:41:26;1.15;;;0.80;;
22160;SDS011;49035;48.812;11.762;2022-09-09T15:43:56;2.03;;;0.85;;
22160;SDS011;49035;48.812;11.762;2022-09-09T15:46:43;3.03;;;0.90;;
22160;SDS011;49035;48.812;11.762;2022-09-09T15:51:38;2.72;;;1.02;;
22160;SDS011;49035;48.812;11.762;2022-09-09T15:54:05;3.75;;;1.42;;
22160;SDS011;49035;48.812;11.762;2022-09-09T15:56:31;3.35;;;1.10;;
22160;SDS011;49035;48.812;11.762;2022-09-09T15:58:57;5.95;;;1.23;;
22160;SDS011;49035;48.812;11.762;2022-09-09T16:01:25;3.53;;;1.55;;
22160;SDS011;49035;48.812;11.762;2022-09-09T16:03:51;3.03;;;1.00;;
22160;SDS011;49035;48.812;11.762;2022-09-09T16:06:18;1.00;;;0.82;;
22160;SDS011;49035;48.812;11.762;2022-09-09T16:08:46;6.88;;;1.25;;
22160;SDS011;49035;48.812;11.762;2022-09-09T16:11:16;3.03;;;1.50;;
22160;SDS011;49035;48.812;11.762;2022-09-09T16:13:47;3.25;;;1.00;;
22160;SDS011;49035;48.812;11.762;2022-09-09T16:16:14;2.28;;;0.80;;
22160;SDS011;49035;48.812;11.762;2022-09-09T16:18:47;1.20;;;0.82;;
22160;SDS011;49035;48.812;11.762;2022-09-09T16:21:17;1.70;;;0.65;;
22160;SDS011;49035;48.812;11.762;2022-09-09T16:23:45;2.63;;;0.85;;
22160;SDS011;49035;48.812;11.762;2022-09-09T16:26:12;9.00;;;1.77;;
22160;SDS011;49035;48.812;11.762;2022-09-09T16:28:38;1.98;;;1.17;;
22160;SDS011;49035;48.812;11.762;2022-09-09T16:31:07;3.10;;;1.05;;
22160;SDS011;49035;48.812;11.762;2022-09-09T16:33:36;2.78;;;1.10;;
22160;SDS011;49035;48.812;11.762;2022-09-09T16:36:10;2.33;;;1.17;;
22160;SDS011;49035;48.812;11.762;2022-09-09T16:38:37;1.88;;;0.93;;
22160;SDS011;49035;48.812;11.762;2022-09-09T16:41:04;3.95;;;0.90;;
22160;SDS011;49035;48.812;11.762;2022-09-09T16:43:31;4.07;;;0.85;;
22160;SDS011;49035;48.812;11.762;2022-09-09T16:46:01;2.40;;;0.60;;
22160;SDS011;49035;48.812;11.762;2022-09-09T16:48:31;1.65;;;0.68;;
22160;SDS011;49035;48.812;11.762;2022-09-09T16:51:01;2.35;;;0.45;;
22160;SDS011;49035;48.812;11.762;2022-09-09T16:53:30;1.98;;;0.50;;
22160;SDS011;49035;48.812;11.762;2022-09-09T16:55:56;3.95;;;0.45;;
22160;SDS011;49035;48.812;11.762;2022-09-09T16:58:21;1.98;;;0.52;;
22160;SDS011;49035;48.812;11.762;2022-09-09T17:00:47;0.85;;;0.50;;
22160;SDS011;49035;48.812;11.762;2022-09-09T17:03:13;0.60;;;0.47;;
22160;SDS011;49035;48.812;11.762;2022-09-09T17:05:40;0.50;;;0.50;;
22160;SDS011;49035;48.812;11.762;2022-09-09T17:08:06;0.40;;;0.40;;
22160;SDS011;49035;48.812;11.762;2022-09-09T17:10:32;2.20;;;0.60;;
22160;SDS011;49035;48.812;11.762;2022-09-09T17:12:57;2.08;;;0.73;;